createdAt,value
2024-04-25T00:00:50.475Z,2.20
2024-04-25T00:03:20.736Z,2.50
2024-04-25T00:05:50.717Z,2.30
2024-04-25T00:08:21.118Z,2.70
2024-04-25T00:10:54.897Z,2.90
2024-04-25T00:13:29.847Z,2.60
2024-04-25T00:16:02.962Z,2.43
2024-04-25T00:18:32.975Z,2.40
2024-04-25T00:21:05.581Z,2.40
2024-04-25T00:23:35.589Z,2.70
2024-04-25T00:26:06.619Z,2.87
2024-04-25T00:28:39.464Z,2.80
2024-04-25T00:31:09.487Z,2.80
2024-04-25T00:33:40.183Z,2.77
2024-04-25T00:36:10.932Z,2.67
2024-04-25T00:38:41.387Z,2.50
2024-04-25T00:41:11.358Z,2.57
2024-04-25T00:43:44.477Z,2.70
2024-04-25T00:46:14.413Z,2.30
2024-04-25T00:48:44.991Z,2.23
2024-04-25T00:51:18.806Z,2.30
2024-04-25T00:53:50.652Z,2.60
2024-04-25T00:56:24.723Z,2.87
2024-04-25T00:59:04.155Z,2.67
2024-04-25T01:01:38.201Z,3.00
2024-04-25T01:04:10.004Z,2.60
2024-04-25T01:06:44.819Z,2.53
2024-04-25T01:09:14.787Z,2.57
2024-04-25T01:11:45.116Z,2.60
2024-04-25T01:14:18.340Z,2.63
2024-04-25T01:16:48.487Z,2.57
2024-04-25T01:19:19.928Z,2.50
2024-04-25T01:21:51.434Z,2.90
2024-04-25T01:24:30.924Z,2.80
2024-04-25T01:27:07.154Z,2.90
2024-04-25T01:29:40.856Z,3.17
2024-04-25T01:32:11.211Z,3.67
2024-04-25T01:34:45.771Z,2.93
2024-04-25T01:37:15.874Z,3.30
2024-04-25T01:39:49.090Z,3.23
2024-04-25T01:42:23.633Z,3.80
2024-04-25T01:44:53.578Z,3.27
2024-04-25T01:47:25.382Z,3.67
2024-04-25T01:49:55.408Z,4.10
2024-04-25T01:52:25.581Z,3.80
2024-04-25T01:54:55.509Z,4.10
2024-04-25T01:57:28.133Z,4.47
2024-04-25T01:59:58.557Z,4.30
2024-04-25T02:02:28.567Z,4.10
2024-04-25T02:04:59.427Z,4.60
2024-04-25T02:07:29.474Z,4.07
2024-04-25T02:09:59.835Z,3.97
2024-04-25T02:12:33.173Z,4.03
2024-04-25T02:15:04.028Z,4.37
2024-04-25T02:17:34.120Z,3.67
2024-04-25T02:20:24.534Z,3.57
2024-04-25T02:23:10.529Z,3.80
2024-04-25T02:25:41.370Z,4.03
2024-04-25T02:28:14.023Z,4.50
2024-04-25T02:30:44.763Z,4.20
2024-04-25T02:33:14.854Z,4.23
2024-04-25T02:35:45.494Z,4.00
2024-04-25T02:38:15.530Z,4.13
2024-04-25T02:40:47.102Z,3.80
2024-04-25T02:43:21.014Z,4.50
2024-04-25T02:45:48.367Z,3.70
2024-04-25T02:48:19.911Z,4.40
2024-04-25T02:50:47.382Z,3.87
2024-04-25T02:53:18.372Z,4.43
2024-04-25T02:55:45.731Z,4.37
2024-04-25T02:58:15.658Z,5.00
2024-04-25T03:00:45.769Z,4.40
2024-04-25T03:03:15.836Z,4.50
2024-04-25T03:05:43.502Z,4.80
2024-04-25T03:08:13.530Z,4.50
2024-04-25T03:10:42.122Z,5.30
2024-04-25T03:13:12.097Z,5.60
2024-04-25T03:15:40.617Z,5.30
2024-04-25T03:18:13.582Z,4.33
2024-04-25T03:20:42.230Z,4.73
2024-04-25T03:23:12.228Z,5.27
2024-04-25T03:25:41.392Z,5.80
2024-04-25T03:28:11.398Z,4.97
2024-04-25T03:30:41.284Z,4.80
2024-04-25T03:33:13.914Z,5.30
2024-04-25T03:35:41.751Z,5.10
2024-04-25T03:38:11.903Z,5.47
2024-04-25T03:40:46.073Z,5.23
2024-04-25T03:43:16.086Z,4.87
2024-04-25T03:45:46.370Z,4.97
2024-04-25T03:48:19.649Z,5.13
2024-04-25T03:50:49.784Z,4.60
2024-04-25T03:53:20.674Z,4.67
2024-04-25T03:55:51.250Z,4.50
2024-04-25T03:58:21.944Z,5.00
2024-04-25T04:00:51.871Z,4.63
2024-04-25T04:03:24.535Z,5.10
2024-04-25T04:05:54.528Z,4.70
2024-04-25T04:08:25.080Z,4.37
2024-04-25T04:10:55.091Z,4.57
2024-04-25T04:13:25.429Z,4.50
2024-04-25T04:15:55.459Z,4.17
2024-04-25T04:18:28.058Z,4.30
2024-04-25T04:20:58.348Z,4.50
2024-04-25T04:23:28.342Z,4.70
2024-04-25T04:25:59.774Z,4.13
2024-04-25T04:28:29.721Z,4.43
2024-04-25T04:31:00.458Z,4.33
2024-04-25T04:33:39.847Z,4.63
2024-04-25T04:36:11.444Z,4.43
2024-04-25T04:38:43.520Z,4.57
2024-04-25T04:41:13.704Z,5.07
2024-04-25T04:43:43.765Z,5.00
2024-04-25T04:46:13.721Z,4.80
2024-04-25T04:48:49.452Z,5.17
2024-04-25T04:51:22.672Z,5.03
2024-04-25T04:53:52.866Z,5.23
2024-04-25T04:56:26.774Z,5.20
2024-04-25T04:58:58.532Z,5.50
2024-04-25T05:01:28.827Z,5.80
2024-04-25T05:04:02.616Z,5.63
2024-04-25T05:06:32.628Z,5.73
2024-04-25T05:09:07.317Z,5.87
2024-04-25T05:11:37.317Z,5.67
2024-04-25T05:14:11.452Z,5.20
2024-04-25T05:16:43.157Z,5.07
2024-04-25T05:19:15.806Z,5.80
2024-04-25T05:21:47.692Z,5.20
2024-04-25T05:24:18.647Z,5.10
2024-04-25T05:26:49.418Z,4.60
2024-04-25T05:29:19.742Z,4.90
2024-04-25T05:31:49.713Z,4.50
2024-04-25T05:34:23.772Z,4.50
2024-04-25T05:36:53.748Z,5.17
2024-04-25T05:39:27.581Z,5.47
2024-04-25T05:41:59.116Z,5.17
2024-04-25T05:44:29.134Z,5.10
2024-04-25T05:47:00.777Z,5.10
2024-04-25T05:49:33.525Z,4.87
2024-04-25T05:52:04.582Z,5.50
2024-04-25T05:54:35.464Z,5.50
2024-04-25T05:57:05.916Z,5.50
2024-04-25T05:59:35.939Z,6.00
2024-04-25T06:02:08.430Z,6.47
2024-04-25T06:04:44.608Z,6.20
2024-04-25T06:07:14.977Z,6.10
2024-04-25T06:09:45.182Z,6.13
2024-04-25T06:12:15.703Z,6.93
2024-04-25T06:14:45.936Z,7.10
2024-04-25T06:17:16.572Z,7.03
2024-04-25T06:19:51.404Z,7.10
2024-04-25T06:22:23.791Z,7.40
2024-04-25T06:24:53.758Z,8.67
2024-04-25T06:27:25.818Z,8.20
2024-04-25T06:29:55.764Z,8.20
2024-04-25T06:32:29.172Z,7.77
2024-04-25T06:35:03.732Z,7.70
2024-04-25T06:37:35.304Z,6.97
2024-04-25T06:40:06.547Z,7.60
2024-04-25T06:42:36.581Z,7.43
2024-04-25T06:45:07.214Z,7.10
2024-04-25T06:47:39.453Z,7.03
2024-04-25T06:50:12.558Z,7.30
2024-04-25T06:52:43.235Z,7.70
2024-04-25T06:55:13.495Z,7.10
2024-04-25T06:57:43.930Z,6.90
2024-04-25T07:00:15.876Z,6.50
2024-04-25T07:02:46.292Z,6.57
2024-04-25T07:05:21.327Z,5.40
2024-04-25T07:07:51.564Z,5.83
2024-04-25T07:10:25.520Z,5.50
2024-04-25T07:12:55.650Z,5.93
2024-04-25T07:15:28.018Z,5.87
2024-04-25T07:18:00.497Z,9.17
2024-04-25T07:20:33.718Z,9.97
2024-04-25T07:23:03.732Z,6.00
2024-04-25T07:25:33.781Z,5.77
2024-04-25T07:28:03.780Z,5.97
2024-04-25T07:30:33.779Z,5.50
2024-04-25T07:33:03.957Z,5.30
2024-04-25T07:35:36.663Z,5.03
2024-04-25T07:38:06.989Z,5.40
2024-04-25T07:40:38.564Z,4.97
2024-04-25T07:43:08.949Z,5.27
2024-04-25T07:45:39.147Z,5.00
2024-04-25T07:48:10.536Z,5.90
2024-04-25T07:50:43.421Z,5.73
2024-04-25T07:53:13.453Z,5.40
2024-04-25T07:55:44.713Z,5.37
2024-04-25T07:58:15.529Z,5.30
2024-04-25T08:00:46.336Z,5.30
2024-04-25T08:03:17.044Z,5.33
2024-04-25T08:05:50.549Z,5.00
2024-04-25T08:08:24.871Z,5.03
2024-04-25T08:10:56.658Z,5.10
2024-04-25T08:13:26.735Z,4.73
2024-04-25T08:15:56.794Z,5.07
2024-04-25T08:18:27.017Z,5.33
2024-04-25T08:21:00.618Z,5.60
2024-04-25T08:23:30.810Z,5.50
2024-04-25T08:26:00.980Z,5.03
2024-04-25T08:28:31.173Z,5.03
2024-04-25T08:31:01.237Z,4.80
2024-04-25T08:33:31.398Z,4.87
2024-04-25T08:36:04.282Z,5.00
2024-04-25T08:38:35.958Z,5.00
2024-04-25T08:41:07.268Z,5.10
2024-04-25T08:43:41.785Z,5.20
2024-04-25T08:46:17.300Z,4.70
2024-04-25T08:48:48.717Z,4.60
2024-04-25T08:51:26.853Z,4.57
2024-04-25T08:54:02.442Z,7.17
2024-04-25T08:56:34.456Z,4.97
2024-04-25T08:59:04.496Z,4.40
2024-04-25T09:01:36.679Z,4.67
2024-04-25T09:04:15.481Z,4.40
2024-04-25T09:06:48.778Z,4.67
2024-04-25T09:09:19.788Z,4.33
2024-04-25T09:11:56.626Z,4.43
2024-04-25T09:14:26.759Z,4.27
2024-04-25T09:16:56.922Z,4.63
2024-04-25T09:19:27.874Z,4.93
2024-04-25T09:22:00.595Z,4.70
2024-04-25T09:24:30.560Z,4.80
2024-04-25T09:27:00.660Z,4.50
2024-04-25T09:29:32.771Z,4.67
2024-04-25T09:32:03.972Z,4.20
2024-04-25T09:34:34.471Z,4.53
2024-04-25T09:37:07.602Z,4.63
2024-04-25T09:39:40.487Z,4.33
2024-04-25T09:42:13.502Z,4.20
2024-04-25T09:44:44.196Z,3.23
2024-04-25T09:47:23.030Z,4.00
2024-04-25T09:50:00.304Z,3.87
2024-04-25T09:52:41.883Z,3.10
2024-04-25T09:55:22.585Z,3.33
2024-04-25T09:57:59.522Z,3.40
2024-04-25T10:00:30.256Z,2.93
2024-04-25T10:03:01.883Z,2.80
2024-04-25T10:05:32.201Z,2.50
2024-04-25T10:08:05.798Z,2.97
2024-04-25T10:10:36.313Z,2.77
2024-04-25T10:13:06.323Z,3.10
2024-04-25T10:15:37.682Z,2.63
2024-04-25T10:18:10.678Z,3.10
2024-04-25T10:20:40.857Z,2.93
2024-04-25T10:23:13.585Z,2.80
2024-04-25T10:25:55.485Z,2.40
2024-04-25T10:28:25.809Z,2.30
2024-04-25T10:30:59.118Z,2.30
2024-04-25T10:33:29.459Z,2.70
2024-04-25T10:36:07.401Z,2.80
2024-04-25T10:38:43.892Z,2.37
2024-04-25T10:41:16.687Z,2.37
2024-04-25T10:43:50.383Z,2.03
2024-04-25T10:46:20.848Z,2.40
2024-04-25T10:48:52.137Z,2.60
2024-04-25T10:51:24.417Z,2.57
2024-04-25T10:53:57.897Z,2.27
2024-04-25T10:56:28.126Z,2.00
2024-04-25T10:59:00.611Z,1.90
2024-04-25T11:01:32.831Z,2.33
2024-04-25T11:04:05.023Z,2.43
2024-04-25T11:06:37.996Z,2.40
2024-04-25T11:09:15.045Z,2.20
2024-04-25T11:11:45.288Z,3.13
2024-04-25T11:14:15.416Z,2.57
2024-04-25T11:16:45.447Z,2.50
2024-04-25T11:19:18.807Z,2.10
2024-04-25T11:21:53.451Z,2.50
2024-04-25T11:24:27.559Z,2.40
2024-04-25T11:27:00.815Z,2.67
2024-04-25T11:29:30.958Z,2.40
2024-04-25T11:32:01.132Z,2.70
2024-04-25T11:34:31.326Z,2.50
2024-04-25T11:37:02.659Z,2.93
2024-04-25T11:39:39.418Z,2.80
2024-04-25T11:42:10.690Z,2.50
2024-04-25T11:44:41.056Z,2.13
2024-04-25T11:47:11.227Z,2.00
2024-04-25T11:49:41.217Z,1.87
2024-04-25T11:52:11.395Z,2.50
2024-04-25T11:54:44.054Z,2.00
2024-04-25T11:57:14.041Z,1.93
2024-04-25T11:59:44.101Z,2.00
2024-04-25T12:02:15.521Z,1.80
2024-04-25T12:04:45.539Z,2.13
2024-04-25T12:07:16.032Z,2.20
2024-04-25T12:09:48.822Z,2.13
2024-04-25T12:12:20.191Z,2.20
2024-04-25T12:14:50.587Z,2.70
2024-04-25T12:17:20.799Z,2.37
2024-04-25T12:19:51.065Z,2.40
2024-04-25T12:22:21.673Z,2.43
2024-04-25T12:24:54.812Z,2.35
2024-04-25T12:27:25.293Z,2.50
2024-04-25T12:29:55.952Z,2.67
2024-04-25T12:32:26.578Z,3.30
2024-04-25T12:34:56.638Z,2.20
2024-04-25T12:37:26.921Z,2.50
2024-04-25T12:39:59.505Z,2.67
2024-04-25T12:42:29.493Z,2.20
2024-04-25T12:44:59.556Z,2.10
2024-04-25T12:47:29.716Z,1.47
2024-04-25T12:49:59.928Z,1.67
2024-04-25T12:52:31.370Z,1.50
2024-04-25T12:55:04.158Z,1.40
2024-04-25T12:57:34.226Z,1.50
2024-04-25T13:00:04.166Z,1.33
2024-04-25T13:02:34.252Z,1.50
2024-04-25T13:05:04.206Z,1.20
2024-04-25T13:07:34.245Z,1.40
2024-04-25T13:10:07.899Z,1.40
2024-04-25T13:12:38.708Z,1.30
2024-04-25T13:15:09.686Z,1.20
2024-04-25T13:17:39.867Z,1.47
2024-04-25T13:20:11.510Z,1.33
2024-04-25T13:22:41.565Z,1.10
2024-04-25T13:25:14.170Z,1.27
2024-04-25T13:27:44.171Z,1.30
2024-04-25T13:30:14.589Z,1.10
2024-04-25T13:32:46.834Z,1.20
2024-04-25T13:35:19.051Z,1.07
2024-04-25T13:37:50.424Z,0.83
2024-04-25T13:40:25.330Z,1.30
2024-04-25T13:42:55.830Z,1.40
2024-04-25T13:45:26.146Z,1.40
2024-04-25T13:47:56.836Z,1.40
2024-04-25T13:50:27.004Z,1.23
2024-04-25T13:52:57.314Z,1.30
2024-04-25T13:55:29.961Z,1.10
2024-04-25T13:57:59.957Z,1.17
2024-04-25T14:00:30.170Z,1.10
2024-04-25T14:03:00.104Z,1.50
2024-04-25T14:05:30.125Z,1.83
2024-04-25T14:08:00.054Z,2.00
2024-04-25T14:10:32.684Z,1.97
2024-04-25T14:13:02.677Z,2.30
2024-04-25T14:15:32.711Z,2.30
2024-04-25T14:18:02.899Z,2.30
2024-04-25T14:20:33.025Z,1.80
2024-04-25T14:23:03.816Z,2.10
2024-04-25T14:25:52.348Z,2.17
2024-04-25T14:28:40.912Z,1.60
2024-04-25T14:31:10.891Z,1.60
2024-04-25T14:33:42.037Z,1.77
2024-04-25T14:36:12.582Z,1.70
2024-04-25T14:38:43.201Z,1.47
2024-04-25T14:41:18.542Z,1.20
2024-04-25T14:43:55.107Z,0.93
2024-04-25T14:46:28.326Z,1.10
2024-04-25T14:48:58.378Z,1.10
2024-04-25T14:51:28.383Z,0.97
2024-04-25T14:53:58.359Z,1.17
2024-04-25T14:56:31.049Z,1.30
2024-04-25T14:59:01.036Z,1.40
2024-04-25T15:01:31.116Z,1.70
2024-04-25T15:04:05.644Z,1.00
2024-04-25T15:06:42.175Z,1.67
2024-04-25T15:09:16.146Z,1.50
2024-04-25T15:12:06.816Z,1.57
2024-04-25T15:14:37.811Z,1.50
2024-04-25T15:17:12.133Z,1.53
2024-04-25T15:19:45.481Z,1.37
2024-04-25T15:22:15.989Z,1.70
2024-04-25T15:24:46.290Z,1.40
2024-04-25T15:27:19.111Z,1.40
2024-04-25T15:29:50.114Z,1.10
2024-04-25T15:32:23.420Z,1.00
2024-04-25T15:34:53.916Z,1.00
2024-04-25T15:37:24.800Z,0.90
2024-04-25T15:39:56.000Z,1.13
2024-04-25T15:42:29.025Z,1.00
2024-04-25T15:44:59.101Z,0.97
2024-04-25T15:47:29.347Z,1.50
2024-04-25T15:49:59.400Z,1.20
2024-04-25T15:52:33.707Z,1.07
2024-04-25T15:55:03.755Z,1.50
2024-04-25T15:57:36.321Z,1.50
2024-04-25T16:00:07.005Z,1.10
2024-04-25T16:02:37.140Z,1.33
2024-04-25T16:05:08.053Z,1.30
2024-04-25T16:07:38.321Z,1.30
2024-04-25T16:10:09.848Z,1.40
2024-04-25T16:12:42.498Z,1.50
2024-04-25T16:15:12.422Z,1.10
2024-04-25T16:17:39.941Z,1.23
2024-04-25T16:20:12.188Z,1.40
2024-04-25T16:22:43.470Z,1.40
2024-04-25T16:25:13.568Z,1.60
2024-04-25T16:27:46.270Z,1.30
2024-04-25T16:30:16.716Z,1.13
2024-04-25T16:32:46.772Z,1.40
2024-04-25T16:35:17.068Z,1.60
2024-04-25T16:37:47.117Z,1.17
2024-04-25T16:40:17.457Z,1.33
2024-04-25T16:42:50.982Z,1.50
2024-04-25T16:45:21.282Z,1.40
2024-04-25T16:47:51.531Z,1.67
2024-04-25T16:50:22.534Z,1.67
2024-04-25T16:52:53.257Z,1.60
2024-04-25T16:55:25.272Z,1.50
2024-04-25T16:57:57.922Z,1.70
2024-04-25T17:00:27.970Z,1.67
2024-04-25T17:02:58.847Z,1.63
2024-04-25T17:05:28.959Z,1.77
2024-04-25T17:07:59.030Z,1.70
2024-04-25T17:10:29.813Z,1.80
2024-04-25T17:13:03.572Z,1.80
2024-04-25T17:15:33.677Z,2.07
2024-04-25T17:18:04.474Z,2.77
2024-04-25T17:20:34.672Z,2.27
2024-04-25T17:23:06.130Z,2.10
2024-04-25T17:25:36.191Z,2.00
2024-04-25T17:28:09.007Z,2.33
2024-04-25T17:30:38.996Z,2.50
2024-04-25T17:33:10.214Z,2.10
2024-04-25T17:35:40.403Z,2.00
2024-04-25T17:38:10.520Z,2.03
2024-04-25T17:40:40.531Z,1.90
2024-04-25T17:43:13.155Z,1.90
2024-04-25T17:45:43.282Z,2.20
2024-04-25T17:48:15.460Z,1.90
2024-04-25T17:50:45.862Z,1.70
2024-04-25T17:53:15.926Z,2.20
2024-04-25T17:55:46.008Z,1.90
2024-04-25T17:58:22.789Z,1.80
2024-04-25T18:00:56.316Z,1.87
2024-04-25T18:03:27.041Z,1.60
2024-04-25T18:05:57.731Z,1.60
2024-04-25T18:08:27.840Z,1.63
2024-04-25T18:10:59.208Z,1.87
2024-04-25T18:13:31.874Z,2.10
2024-04-25T18:16:01.899Z,1.97
2024-04-25T18:18:32.281Z,1.93
2024-04-25T18:21:02.275Z,1.90
2024-04-25T18:23:32.261Z,1.63
2024-04-25T18:26:02.233Z,1.70
2024-04-25T18:28:34.824Z,2.20
2024-04-25T18:31:04.810Z,2.27
2024-04-25T18:33:34.918Z,2.10
2024-04-25T18:36:05.115Z,2.10
2024-04-25T18:38:35.134Z,2.30
2024-04-25T18:41:05.111Z,2.07
2024-04-25T18:43:37.827Z,2.13
2024-04-25T18:46:08.157Z,2.47
2024-04-25T18:48:39.615Z,2.47
2024-04-25T18:51:09.910Z,2.40
2024-04-25T18:53:39.904Z,2.20
2024-04-25T18:56:10.359Z,2.30
2024-04-25T18:58:42.948Z,2.60
2024-04-25T19:01:12.948Z,2.10
2024-04-25T19:03:42.905Z,2.20
2024-04-25T19:06:13.061Z,2.20
2024-04-25T19:08:43.004Z,2.13
2024-04-25T19:11:13.007Z,2.17
2024-04-25T19:13:47.418Z,1.67
2024-04-25T19:16:25.770Z,1.70
2024-04-25T19:18:58.685Z,1.80
2024-04-25T19:21:28.686Z,2.00
2024-04-25T19:23:59.520Z,1.50
2024-04-25T19:26:29.704Z,1.63
2024-04-25T19:29:02.976Z,1.73
2024-04-25T19:31:33.014Z,1.40
2024-04-25T19:34:03.621Z,1.70
2024-04-25T19:36:33.756Z,1.30
2024-04-25T19:39:03.801Z,1.67
2024-04-25T19:41:33.976Z,1.47
2024-04-25T19:44:06.651Z,1.80
2024-04-25T19:46:36.662Z,1.40
2024-04-25T19:49:06.710Z,1.47
2024-04-25T19:51:37.214Z,1.47
2024-04-25T19:54:07.371Z,1.67
2024-04-25T19:56:37.398Z,1.73
2024-04-25T19:59:10.548Z,1.40
2024-04-25T20:01:40.470Z,1.60
2024-04-25T20:04:10.498Z,1.57
2024-04-25T20:06:40.487Z,1.60
2024-04-25T20:09:10.481Z,1.60
2024-04-25T20:11:43.343Z,1.43
2024-04-25T20:14:16.095Z,1.70
2024-04-25T20:16:46.350Z,1.50
2024-04-25T20:19:32.442Z,1.50
2024-04-25T20:22:02.953Z,1.50
2024-04-25T20:24:33.112Z,1.53
2024-04-25T20:27:03.678Z,1.47
2024-04-25T20:29:36.372Z,1.50
2024-04-25T20:32:06.345Z,1.70
2024-04-25T20:34:36.283Z,1.80
2024-04-25T20:37:06.375Z,1.97
2024-04-25T20:39:36.374Z,2.00
2024-04-25T20:42:06.529Z,1.73
2024-04-25T20:44:39.141Z,1.77
2024-04-25T20:47:10.001Z,2.00
2024-04-25T20:49:40.009Z,2.00
2024-04-25T20:52:10.102Z,2.00
2024-04-25T20:54:40.417Z,1.63
2024-04-25T20:57:10.541Z,2.00
2024-04-25T20:59:45.556Z,2.27
2024-04-25T21:02:15.664Z,2.50
2024-04-25T21:04:45.654Z,2.60
2024-04-25T21:07:15.710Z,2.33
2024-04-25T21:09:45.669Z,2.00
2024-04-25T21:12:18.976Z,2.03
2024-04-25T21:14:52.216Z,2.23
2024-04-25T21:17:28.751Z,2.23
2024-04-25T21:19:58.872Z,2.30
2024-04-25T21:22:28.867Z,2.20
2024-04-25T21:24:58.847Z,2.33
2024-04-25T21:27:29.032Z,2.00
2024-04-25T21:30:01.738Z,2.53
2024-04-25T21:32:42.857Z,2.27
2024-04-25T21:35:15.973Z,2.37
2024-04-25T21:37:46.976Z,2.33
2024-04-25T21:40:17.137Z,2.57
2024-04-25T21:42:47.415Z,2.43
2024-04-25T21:45:20.221Z,2.50
2024-04-25T21:47:50.723Z,2.60
2024-04-25T21:50:21.004Z,2.20
2024-04-25T21:52:51.400Z,2.40
2024-04-25T21:55:21.877Z,2.53
2024-04-25T21:57:52.268Z,2.70
2024-04-25T22:00:25.192Z,2.90
2024-04-25T22:02:55.931Z,2.90
2024-04-25T22:05:28.167Z,2.57
2024-04-25T22:07:58.381Z,2.80
2024-04-25T22:10:28.593Z,2.90
2024-04-25T22:13:00.287Z,3.13
2024-04-25T22:15:33.165Z,2.90
2024-04-25T22:18:06.301Z,3.00
2024-04-25T22:20:36.534Z,2.90
2024-04-25T22:23:06.744Z,2.87
2024-04-25T22:25:40.352Z,3.10
2024-04-25T22:28:11.437Z,3.27
2024-04-25T22:30:44.217Z,3.10
2024-04-25T22:33:14.277Z,2.80
2024-04-25T22:35:44.373Z,2.90
2024-04-25T22:38:14.637Z,2.87
2024-04-25T22:40:44.773Z,3.10
2024-04-25T22:43:14.768Z,3.20
2024-04-25T22:45:47.550Z,3.20
2024-04-25T22:48:18.086Z,3.00
2024-04-25T22:50:49.307Z,2.77
2024-04-25T22:53:19.724Z,3.00
2024-04-25T22:55:50.763Z,3.00
2024-04-25T22:58:21.106Z,3.10
2024-04-25T23:00:54.540Z,3.33
2024-04-25T23:03:27.818Z,3.70
2024-04-25T23:05:59.471Z,3.07
2024-04-25T23:08:30.661Z,2.87
2024-04-25T23:11:00.798Z,3.00
2024-04-25T23:13:31.120Z,2.90
2024-04-25T23:16:04.008Z,3.00
2024-04-25T23:18:33.621Z,2.90
2024-04-25T23:21:04.746Z,2.87
2024-04-25T23:23:34.898Z,2.70
2024-04-25T23:26:05.519Z,3.00
2024-04-25T23:28:35.479Z,3.03
2024-04-25T23:31:08.200Z,2.70
2024-04-25T23:33:38.400Z,2.93
2024-04-25T23:36:11.642Z,2.83
2024-04-25T23:38:41.715Z,2.90
2024-04-25T23:41:11.687Z,2.83
2024-04-25T23:43:40.065Z,2.80
2024-04-25T23:46:12.824Z,3.00
2024-04-25T23:48:43.244Z,3.00
2024-04-25T23:51:13.262Z,3.33
2024-04-25T23:53:43.386Z,3.10
2024-04-25T23:56:13.348Z,3.47
2024-04-25T23:58:45.121Z,3.10
